createdAt,value
2023-05-03T00:00:01.524Z,2.17
2023-05-03T00:02:32.618Z,2.10
2023-05-03T00:05:01.042Z,2.30
2023-05-03T00:07:29.381Z,2.78
2023-05-03T00:09:57.461Z,2.35
2023-05-03T00:12:25.761Z,2.67
2023-05-03T00:14:55.075Z,2.15
2023-05-03T00:17:23.281Z,2.40
2023-05-03T00:19:51.593Z,2.17
2023-05-03T00:22:19.646Z,2.20
2023-05-03T00:24:47.457Z,2.10
2023-05-03T00:27:15.648Z,2.30
2023-05-03T00:29:43.720Z,2.53
2023-05-03T00:32:13.135Z,2.03
2023-05-03T00:34:41.321Z,1.98
2023-05-03T00:37:09.499Z,2.28
2023-05-03T00:39:37.502Z,2.35
2023-05-03T00:42:05.955Z,2.38
2023-05-03T00:44:34.219Z,2.35
2023-05-03T00:47:02.825Z,2.70
2023-05-03T00:49:32.433Z,2.25
2023-05-03T00:52:00.585Z,2.25
2023-05-03T00:54:29.646Z,2.22
2023-05-03T00:56:58.242Z,2.30
2023-05-03T00:59:27.756Z,2.25
2023-05-03T01:01:55.925Z,2.28
2023-05-03T01:04:24.761Z,2.28
2023-05-03T01:07:01.334Z,2.30
2023-05-03T01:09:34.188Z,2.80
2023-05-03T01:12:13.694Z,2.38
2023-05-03T01:14:46.643Z,2.60
2023-05-03T01:17:16.090Z,3.00
2023-05-03T01:19:45.805Z,2.67
2023-05-03T01:22:19.975Z,2.22
2023-05-03T01:27:19.356Z,2.03
2023-05-03T01:29:47.528Z,2.35
2023-05-03T01:32:26.937Z,2.65
2023-05-03T01:35:04.777Z,2.83
2023-05-03T01:37:33.312Z,2.45
2023-05-03T01:40:05.546Z,2.78
2023-05-03T01:42:36.834Z,2.60
2023-05-03T01:45:05.624Z,2.90
2023-05-03T01:47:34.092Z,2.58
2023-05-03T01:50:02.583Z,2.65
2023-05-03T01:52:31.593Z,2.88
2023-05-03T01:55:00.158Z,2.60
2023-05-03T01:57:28.503Z,2.90
2023-05-03T01:59:57.842Z,2.50
2023-05-03T02:02:26.202Z,2.30
2023-05-03T02:04:54.785Z,2.40
2023-05-03T02:07:23.496Z,2.38
2023-05-03T02:09:51.759Z,2.35
2023-05-03T02:12:19.831Z,2.80
2023-05-03T02:14:48.117Z,2.28
2023-05-03T02:17:19.072Z,2.60
2023-05-03T02:19:47.229Z,2.72
2023-05-03T02:22:15.401Z,2.30
2023-05-03T02:24:43.434Z,2.35
2023-05-03T02:27:11.413Z,2.50
2023-05-03T02:29:40.325Z,2.28
2023-05-03T02:32:08.342Z,2.17
2023-05-03T02:34:38.263Z,2.80
2023-05-03T02:37:06.358Z,2.50
2023-05-03T02:39:34.817Z,2.42
2023-05-03T02:42:04.169Z,2.58
2023-05-03T02:44:33.584Z,2.78
2023-05-03T02:47:02.014Z,2.60
2023-05-03T02:49:31.434Z,2.85
2023-05-03T02:52:02.265Z,2.95
2023-05-03T02:54:30.420Z,2.67
2023-05-03T02:57:00.152Z,2.85
2023-05-03T02:59:28.418Z,2.35
2023-05-03T03:01:57.394Z,2.88
2023-05-03T03:04:26.306Z,2.38
2023-05-03T03:06:54.635Z,2.75
2023-05-03T03:09:24.217Z,2.67
2023-05-03T03:11:52.935Z,2.60
2023-05-03T03:14:21.566Z,2.83
2023-05-03T03:16:52.519Z,2.92
2023-05-03T03:19:20.702Z,2.63
2023-05-03T03:21:48.960Z,2.50
2023-05-03T03:24:16.952Z,2.63
2023-05-03T03:26:46.092Z,2.30
2023-05-03T03:29:14.170Z,2.67
2023-05-03T03:31:44.893Z,2.92
2023-05-03T03:34:15.793Z,2.78
2023-05-03T03:36:43.684Z,3.35
2023-05-03T03:39:11.905Z,2.80
2023-05-03T03:41:41.406Z,2.92
2023-05-03T03:44:10.749Z,2.92
2023-05-03T03:46:39.548Z,2.70
2023-05-03T03:49:08.265Z,3.20
2023-05-03T03:51:37.165Z,2.88
2023-05-03T03:54:06.328Z,2.80
2023-05-03T03:56:38.698Z,2.95
2023-05-03T03:59:08.250Z,2.55
2023-05-03T04:01:37.682Z,3.20
2023-05-03T04:04:06.874Z,2.60
2023-05-03T04:06:35.592Z,3.10
2023-05-03T04:09:08.010Z,2.47
2023-05-03T04:11:37.405Z,3.30
2023-05-03T04:14:06.612Z,2.95
2023-05-03T04:16:34.875Z,2.63
2023-05-03T04:19:06.242Z,2.90
2023-05-03T04:21:37.364Z,2.80
2023-05-03T04:24:07.734Z,2.88
2023-05-03T04:26:36.155Z,2.95
2023-05-03T04:29:11.797Z,2.78
2023-05-03T04:31:41.408Z,2.63
2023-05-03T04:34:15.126Z,3.33
2023-05-03T04:36:46.593Z,3.13
2023-05-03T04:39:15.875Z,2.70
2023-05-03T04:41:46.326Z,2.85
2023-05-03T04:44:15.117Z,2.78
2023-05-03T04:46:45.967Z,2.92
2023-05-03T04:49:17.812Z,3.33
2023-05-03T04:51:45.915Z,3.10
2023-05-03T04:54:14.196Z,4.28
2023-05-03T04:56:42.635Z,3.30
2023-05-03T04:59:16.266Z,3.80
2023-05-03T05:01:44.571Z,3.38
2023-05-03T05:04:12.934Z,3.13
2023-05-03T05:06:49.699Z,3.20
2023-05-03T05:09:26.141Z,3.05
2023-05-03T05:11:57.372Z,2.72
2023-05-03T05:14:31.800Z,3.35
2023-05-03T05:17:00.490Z,3.13
2023-05-03T05:19:28.757Z,3.15
2023-05-03T05:21:59.747Z,3.05
2023-05-03T05:24:37.681Z,3.33
2023-05-03T05:27:07.155Z,2.90
2023-05-03T05:29:35.346Z,2.70
2023-05-03T05:32:05.432Z,2.70
2023-05-03T05:34:43.592Z,2.88
2023-05-03T05:37:17.668Z,2.88
2023-05-03T05:39:47.647Z,3.20
2023-05-03T05:42:17.501Z,2.95
2023-05-03T05:44:46.532Z,2.95
2023-05-03T05:47:15.338Z,3.08
2023-05-03T05:49:45.516Z,3.53
2023-05-03T05:52:14.524Z,2.90
2023-05-03T05:54:44.545Z,2.80
2023-05-03T05:57:14.045Z,2.97
2023-05-03T05:59:42.796Z,3.05
2023-05-03T06:02:16.840Z,2.67
2023-05-03T06:04:46.915Z,3.00
2023-05-03T06:07:16.277Z,2.85
2023-05-03T06:09:45.655Z,3.88
2023-05-03T06:12:14.585Z,3.53
2023-05-03T06:14:55.438Z,3.67
2023-05-03T06:17:31.813Z,3.78
2023-05-03T06:20:00.327Z,3.72
2023-05-03T06:22:29.001Z,3.55
2023-05-03T06:24:59.182Z,2.58
2023-05-03T06:27:28.645Z,2.85
2023-05-03T06:29:57.950Z,2.72
2023-05-03T06:32:26.485Z,2.70
2023-05-03T06:34:54.818Z,2.10
2023-05-03T06:37:23.911Z,2.25
2023-05-03T06:39:52.306Z,2.67
2023-05-03T06:42:22.062Z,2.58
2023-05-03T06:44:50.128Z,2.25
2023-05-03T06:47:20.504Z,2.10
2023-05-03T06:49:48.833Z,2.55
2023-05-03T06:52:17.182Z,2.90
2023-05-03T06:54:45.574Z,2.08
2023-05-03T06:57:13.837Z,2.40
2023-05-03T06:59:43.221Z,2.38
2023-05-03T07:02:11.376Z,2.28
2023-05-03T07:04:40.135Z,2.20
2023-05-03T07:07:08.261Z,2.10
2023-05-03T07:12:10.836Z,1.95
2023-05-03T07:14:39.644Z,2.15
2023-05-03T07:17:09.211Z,1.70
2023-05-03T07:19:38.111Z,2.55
2023-05-03T07:22:06.237Z,1.80
2023-05-03T07:24:34.329Z,1.70
2023-05-03T07:27:03.364Z,1.50
2023-05-03T07:29:31.425Z,1.70
2023-05-03T07:31:59.803Z,1.60
2023-05-03T07:34:29.277Z,1.70
2023-05-03T07:36:57.511Z,1.40
2023-05-03T07:39:26.156Z,1.42
2023-05-03T07:41:54.197Z,1.75
2023-05-03T07:44:22.712Z,1.30
2023-05-03T07:46:51.051Z,1.58
2023-05-03T07:49:19.021Z,1.40
2023-05-03T07:51:48.464Z,1.48
2023-05-03T07:54:16.714Z,1.85
2023-05-03T07:56:44.784Z,1.83
2023-05-03T07:59:12.689Z,1.42
2023-05-03T08:01:40.884Z,1.30
2023-05-03T08:04:09.381Z,1.35
2023-05-03T08:06:38.860Z,1.67
2023-05-03T08:09:09.101Z,1.60
2023-05-03T08:11:37.396Z,1.55
2023-05-03T08:14:05.721Z,1.40
2023-05-03T08:16:34.067Z,1.73
2023-05-03T08:19:03.412Z,1.63
2023-05-03T08:21:33.729Z,1.83
2023-05-03T08:24:02.285Z,1.60
2023-05-03T08:26:31.600Z,1.40
2023-05-03T08:29:00.294Z,1.90
2023-05-03T08:31:28.580Z,1.75
2023-05-03T08:33:56.680Z,1.48
2023-05-03T08:36:24.835Z,1.77
2023-05-03T08:38:52.886Z,1.95
2023-05-03T08:41:23.741Z,1.88
2023-05-03T08:43:54.806Z,2.13
2023-05-03T08:46:23.351Z,1.90
2023-05-03T08:48:53.675Z,2.00
2023-05-03T08:51:23.443Z,1.92
2023-05-03T08:53:52.007Z,2.25
2023-05-03T08:56:26.243Z,2.17
2023-05-03T09:01:23.659Z,1.95
2023-05-03T09:03:53.074Z,1.70
2023-05-03T09:06:22.464Z,1.70
2023-05-03T09:08:50.701Z,1.98
2023-05-03T09:11:23.166Z,2.15
2023-05-03T09:13:53.061Z,1.60
2023-05-03T09:16:27.596Z,2.28
2023-05-03T09:19:00.022Z,1.70
2023-05-03T09:21:29.033Z,3.20
2023-05-03T09:23:56.896Z,1.90
2023-05-03T09:26:29.207Z,2.40
2023-05-03T09:28:57.300Z,1.73
2023-05-03T09:31:27.290Z,1.70
2023-05-03T09:33:55.687Z,1.95
2023-05-03T09:36:24.139Z,1.90
2023-05-03T09:38:53.138Z,2.30
2023-05-03T09:41:31.376Z,1.83
2023-05-03T09:44:03.026Z,2.15
2023-05-03T09:46:33.588Z,2.10
2023-05-03T09:49:01.877Z,1.73
2023-05-03T09:51:31.918Z,2.60
2023-05-03T09:54:00.424Z,1.75
2023-05-03T09:56:28.673Z,1.85
2023-05-03T09:58:57.039Z,1.73
2023-05-03T10:01:25.888Z,2.10
2023-05-03T10:03:58.030Z,2.25
2023-05-03T10:06:28.059Z,2.33
2023-05-03T10:09:02.246Z,2.17
2023-05-03T10:11:30.591Z,1.95
2023-05-03T10:13:59.186Z,1.88
2023-05-03T10:16:31.120Z,1.75
2023-05-03T10:19:10.187Z,1.75
2023-05-03T10:21:56.310Z,1.85
2023-05-03T10:24:24.339Z,1.90
2023-05-03T10:26:53.249Z,2.00
2023-05-03T10:29:54.027Z,1.90
2023-05-03T10:32:36.030Z,1.88
2023-05-03T10:35:09.933Z,2.08
2023-05-03T10:37:39.900Z,1.88
2023-05-03T10:40:10.549Z,1.95
2023-05-03T10:42:39.653Z,1.90
2023-05-03T10:45:12.232Z,2.00
2023-05-03T10:47:40.958Z,1.80
2023-05-03T10:50:29.629Z,1.80
2023-05-03T10:52:57.771Z,1.45
2023-05-03T10:55:28.444Z,1.75
2023-05-03T10:57:58.752Z,1.88
2023-05-03T11:00:32.430Z,1.50
2023-05-03T11:03:11.415Z,1.80
2023-05-03T11:05:40.893Z,1.83
2023-05-03T11:08:10.615Z,2.08
2023-05-03T11:10:38.928Z,3.28
2023-05-03T11:13:07.606Z,2.25
2023-05-03T11:15:36.380Z,2.00
2023-05-03T11:18:04.603Z,2.00
2023-05-03T11:20:33.805Z,1.83
2023-05-03T11:23:03.966Z,1.95
2023-05-03T11:25:33.716Z,2.10
2023-05-03T11:28:02.988Z,2.35
2023-05-03T11:30:33.747Z,2.22
2023-05-03T11:33:02.996Z,1.90
2023-05-03T11:35:32.000Z,1.80
2023-05-03T11:38:00.404Z,1.83
2023-05-03T11:40:30.036Z,2.25
2023-05-03T11:43:00.030Z,2.47
2023-05-03T11:45:31.601Z,2.10
2023-05-03T11:48:00.224Z,2.55
2023-05-03T11:50:29.591Z,2.03
2023-05-03T11:52:58.481Z,2.38
2023-05-03T11:55:29.126Z,2.20
2023-05-03T11:57:58.276Z,2.50
2023-05-03T12:00:27.542Z,2.53
2023-05-03T12:02:55.604Z,2.97
2023-05-03T12:05:24.654Z,2.33
2023-05-03T12:07:53.442Z,2.15
2023-05-03T12:10:25.735Z,2.72
2023-05-03T12:12:59.882Z,2.17
2023-05-03T12:15:30.376Z,2.03
2023-05-03T12:18:00.271Z,2.15
2023-05-03T12:23:05.124Z,2.25
2023-05-03T12:25:35.000Z,2.08
2023-05-03T12:28:19.602Z,2.10
2023-05-03T12:30:48.946Z,2.30
2023-05-03T12:33:22.076Z,2.30
2023-05-03T12:35:53.288Z,2.20
2023-05-03T12:38:23.903Z,2.00
2023-05-03T12:40:53.915Z,1.70
2023-05-03T12:43:24.839Z,1.80
2023-05-03T12:46:06.193Z,1.90
2023-05-03T12:48:45.849Z,1.80
2023-05-03T12:53:47.622Z,1.80
2023-05-03T12:56:17.066Z,2.20
2023-05-03T13:02:18.610Z,2.22
2023-05-03T13:04:27.307Z,1.92
2023-05-03T13:07:00.199Z,1.73
2023-05-03T13:09:38.811Z,2.08
2023-05-03T13:12:18.237Z,2.20
2023-05-03T13:14:49.685Z,2.05
2023-05-03T13:17:18.710Z,2.13
2023-05-03T13:19:47.206Z,2.25
2023-05-03T13:22:16.175Z,2.30
2023-05-03T13:24:46.205Z,2.10
2023-05-03T13:27:14.406Z,2.50
2023-05-03T13:29:42.585Z,2.05
2023-05-03T13:32:12.461Z,3.03
2023-05-03T13:34:40.651Z,2.30
2023-05-03T13:37:08.798Z,2.63
2023-05-03T13:39:36.807Z,1.80
2023-05-03T13:42:05.232Z,1.70
2023-05-03T13:44:33.258Z,1.90
2023-05-03T13:47:01.546Z,1.95
2023-05-03T13:49:31.074Z,1.92
2023-05-03T13:51:59.079Z,2.17
2023-05-03T13:54:27.154Z,2.22
2023-05-03T13:56:55.141Z,1.80
2023-05-03T13:59:24.460Z,2.20
2023-05-03T14:01:52.614Z,2.10
2023-05-03T14:04:21.178Z,1.50
2023-05-03T14:06:50.964Z,1.98
2023-05-03T14:09:19.139Z,2.17
2023-05-03T14:11:47.222Z,1.80
2023-05-03T14:14:15.279Z,1.95
2023-05-03T14:16:43.378Z,1.98
2023-05-03T14:19:12.169Z,1.88
2023-05-03T14:21:40.402Z,2.58
2023-05-03T14:24:10.294Z,1.98
2023-05-03T14:26:38.347Z,2.20
2023-05-03T14:29:06.460Z,2.00
2023-05-03T14:31:34.805Z,2.05
2023-05-03T14:34:03.738Z,2.13
2023-05-03T14:36:36.107Z,2.35
2023-05-03T14:39:05.240Z,2.47
2023-05-03T14:41:34.979Z,1.85
2023-05-03T14:44:04.242Z,2.00
2023-05-03T14:46:32.456Z,2.40
2023-05-03T14:49:01.691Z,2.50
2023-05-03T14:51:29.688Z,2.05
2023-05-03T14:53:57.565Z,2.10
2023-05-03T14:56:26.107Z,2.30
2023-05-03T14:58:55.611Z,2.10
2023-05-03T15:01:24.261Z,1.95
2023-05-03T15:03:52.262Z,2.53
2023-05-03T15:06:25.191Z,2.42
2023-05-03T15:08:54.138Z,2.08
2023-05-03T15:11:22.270Z,2.30
2023-05-03T15:13:50.553Z,2.17
2023-05-03T15:16:20.206Z,2.03
2023-05-03T15:18:48.788Z,2.03
2023-05-03T15:21:17.172Z,2.00
2023-05-03T15:23:48.410Z,2.00
2023-05-03T15:26:16.809Z,1.80
2023-05-03T15:28:45.168Z,2.60
2023-05-03T15:31:14.048Z,1.92
2023-05-03T15:33:44.697Z,2.28
2023-05-03T15:36:13.716Z,2.13
2023-05-03T15:38:42.085Z,2.20
2023-05-03T15:41:10.258Z,2.50
2023-05-03T15:43:38.069Z,2.13
2023-05-03T15:46:06.716Z,2.60
2023-05-03T15:48:34.999Z,2.78
2023-05-03T15:51:04.623Z,2.50
2023-05-03T15:53:32.846Z,2.20
2023-05-03T15:56:02.569Z,2.13
2023-05-03T15:58:30.933Z,2.65
2023-05-03T16:00:59.384Z,2.47
2023-05-03T16:03:28.885Z,2.50
2023-05-03T16:05:57.472Z,2.22
2023-05-03T16:08:26.866Z,2.20
2023-05-03T16:10:55.475Z,2.30
2023-05-03T16:13:23.638Z,2.35
2023-05-03T16:15:53.083Z,3.10
2023-05-03T16:18:21.556Z,2.25
2023-05-03T16:20:49.603Z,2.42
2023-05-03T16:23:18.103Z,2.60
2023-05-03T16:25:47.448Z,2.53
2023-05-03T16:28:16.220Z,2.85
2023-05-03T16:30:44.193Z,2.35
2023-05-03T16:33:13.170Z,2.45
2023-05-03T16:35:41.402Z,2.30
2023-05-03T16:38:09.522Z,2.40
2023-05-03T16:40:40.866Z,2.72
2023-05-03T16:43:10.602Z,2.58
2023-05-03T16:45:38.616Z,2.28
2023-05-03T16:48:08.363Z,2.50
2023-05-03T16:50:38.676Z,2.42
2023-05-03T16:53:06.828Z,2.42
2023-05-03T16:55:35.243Z,2.60
2023-05-03T16:58:03.240Z,2.30
2023-05-03T17:00:33.144Z,3.10
2023-05-03T17:03:01.334Z,2.50
2023-05-03T17:05:33.345Z,2.40
2023-05-03T17:08:02.197Z,2.40
2023-05-03T17:10:31.496Z,2.20
2023-05-03T17:13:01.240Z,3.05
2023-05-03T17:15:29.501Z,2.53
2023-05-03T17:17:58.824Z,2.63
2023-05-03T17:20:27.193Z,2.30
2023-05-03T17:22:55.483Z,2.78
2023-05-03T17:25:23.720Z,2.53
2023-05-03T17:27:53.092Z,2.20
2023-05-03T17:30:21.546Z,3.20
2023-05-03T17:32:52.783Z,2.60
2023-05-03T17:35:22.895Z,2.60
2023-05-03T17:37:50.864Z,2.70
2023-05-03T17:40:19.167Z,2.22
2023-05-03T17:42:48.145Z,2.42
2023-05-03T17:45:16.447Z,2.40
2023-05-03T17:47:44.553Z,2.80
2023-05-03T17:50:13.647Z,2.78
2023-05-03T17:52:43.199Z,2.80
2023-05-03T17:55:12.314Z,3.00
2023-05-03T17:57:40.681Z,2.50
2023-05-03T18:00:15.470Z,3.15
2023-05-03T18:02:43.812Z,2.67
2023-05-03T18:05:12.575Z,2.60
2023-05-03T18:07:41.179Z,2.72
2023-05-03T18:10:14.668Z,2.50
2023-05-03T18:12:43.196Z,2.65
2023-05-03T18:15:12.117Z,2.50
2023-05-03T18:17:40.465Z,2.75
2023-05-03T18:20:10.322Z,2.65
2023-05-03T18:22:39.344Z,3.10
2023-05-03T18:25:08.202Z,2.50
2023-05-03T18:27:38.037Z,2.78
2023-05-03T18:30:07.243Z,2.53
2023-05-03T18:32:35.957Z,2.60
2023-05-03T18:35:04.636Z,2.47
2023-05-03T18:37:32.787Z,2.10
2023-05-03T18:40:01.139Z,2.40
2023-05-03T18:42:29.386Z,2.17
2023-05-03T18:44:58.906Z,2.88
2023-05-03T18:47:27.229Z,2.70
2023-05-03T18:49:55.448Z,2.40
2023-05-03T18:52:24.345Z,2.33
2023-05-03T18:54:52.336Z,2.42
2023-05-03T18:57:20.926Z,2.35
2023-05-03T19:00:00.031Z,2.67
2023-05-03T19:02:31.791Z,2.58
2023-05-03T19:05:01.114Z,2.60
2023-05-03T19:07:30.081Z,2.50
2023-05-03T19:09:59.502Z,2.90
2023-05-03T19:12:27.788Z,2.17
2023-05-03T19:14:55.764Z,2.85
2023-05-03T19:17:23.973Z,2.38
2023-05-03T19:19:58.254Z,2.42
2023-05-03T19:22:27.587Z,2.20
2023-05-03T19:24:55.685Z,2.50
2023-05-03T19:27:23.730Z,2.80
2023-05-03T19:29:51.874Z,3.25
2023-05-03T19:32:20.082Z,2.80
2023-05-03T19:34:48.475Z,2.47
2023-05-03T19:37:17.947Z,2.90
2023-05-03T19:39:45.932Z,3.58
2023-05-03T19:42:14.525Z,3.17
2023-05-03T19:44:42.718Z,2.83
2023-05-03T19:47:10.776Z,3.10
2023-05-03T19:49:39.457Z,3.50
2023-05-03T19:52:08.059Z,3.28
2023-05-03T19:54:37.463Z,3.20
2023-05-03T19:57:06.243Z,2.65
2023-05-03T19:59:37.296Z,2.95
2023-05-03T20:02:05.406Z,2.75
2023-05-03T20:04:33.979Z,2.95
2023-05-03T20:07:02.371Z,3.20
2023-05-03T20:09:30.526Z,3.40
2023-05-03T20:12:00.156Z,2.90
2023-05-03T20:14:28.523Z,2.95
2023-05-03T20:16:59.279Z,2.92
2023-05-03T20:19:27.256Z,3.00
2023-05-03T20:21:55.262Z,3.22
2023-05-03T20:24:23.415Z,3.88
2023-05-03T20:26:52.128Z,3.60
2023-05-03T20:29:21.712Z,3.58
2023-05-03T20:31:53.641Z,3.75
2023-05-03T20:34:22.035Z,3.83
2023-05-03T20:36:50.242Z,4.90
2023-05-03T20:39:18.572Z,4.47
2023-05-03T20:41:46.451Z,4.90
2023-05-03T20:44:15.070Z,4.30
2023-05-03T20:46:45.493Z,4.60
2023-05-03T20:49:13.596Z,5.03
2023-05-03T20:51:41.757Z,5.22
2023-05-03T20:54:09.694Z,5.35
2023-05-03T20:56:37.609Z,4.93
2023-05-03T20:59:05.984Z,5.00
2023-05-03T21:01:34.054Z,5.28
2023-05-03T21:04:04.139Z,5.45
2023-05-03T21:06:32.202Z,4.68
2023-05-03T21:09:00.305Z,5.47
2023-05-03T21:11:28.382Z,5.20
2023-05-03T21:13:56.446Z,4.93
2023-05-03T21:16:24.667Z,4.47
2023-05-03T21:18:53.001Z,5.65
2023-05-03T21:21:22.356Z,4.43
2023-05-03T21:23:50.830Z,5.10
2023-05-03T21:26:18.918Z,5.07
2023-05-03T21:28:46.798Z,5.10
2023-05-03T21:31:15.201Z,5.07
2023-05-03T21:33:43.570Z,5.38
2023-05-03T21:36:12.676Z,5.35
2023-05-03T21:38:42.144Z,5.40
2023-05-03T21:41:11.009Z,5.30
2023-05-03T21:43:39.010Z,5.32
2023-05-03T21:46:08.244Z,5.82
2023-05-03T21:48:36.671Z,5.53
2023-05-03T21:51:05.492Z,5.85
2023-05-03T21:53:35.702Z,5.70
2023-05-03T21:56:05.933Z,5.47
2023-05-03T21:58:34.616Z,5.75
2023-05-03T22:01:03.774Z,5.88
2023-05-03T22:03:32.243Z,5.80
2023-05-03T22:06:01.184Z,5.55
2023-05-03T22:08:28.996Z,6.18
2023-05-03T22:10:57.146Z,5.85
2023-05-03T22:13:26.554Z,5.93
2023-05-03T22:15:54.576Z,6.03
2023-05-03T22:18:22.590Z,6.25
2023-05-03T22:20:50.796Z,6.45
2023-05-03T22:23:19.288Z,5.90
2023-05-03T22:25:47.376Z,5.80
2023-05-03T22:28:15.442Z,6.07
2023-05-03T22:30:44.824Z,6.10
2023-05-03T22:33:12.692Z,5.97
2023-05-03T22:35:40.629Z,6.65
2023-05-03T22:38:08.727Z,6.50
2023-05-03T22:40:36.904Z,6.82
2023-05-03T22:43:05.590Z,7.32
2023-05-03T22:45:33.694Z,6.32
2023-05-03T22:48:03.637Z,6.60
2023-05-03T22:50:32.136Z,6.85
2023-05-03T22:53:00.152Z,6.75
2023-05-03T22:55:29.250Z,6.43
2023-05-03T22:57:57.222Z,7.15
2023-05-03T23:00:27.132Z,6.85
2023-05-03T23:02:55.792Z,7.28
2023-05-03T23:05:26.481Z,7.38
2023-05-03T23:07:54.696Z,7.72
2023-05-03T23:10:22.838Z,6.68
2023-05-03T23:12:50.827Z,7.13
2023-05-03T23:15:18.881Z,7.32
2023-05-03T23:17:46.923Z,7.70
2023-05-03T23:20:15.449Z,7.18
2023-05-03T23:22:44.801Z,7.55
2023-05-03T23:25:12.753Z,7.20
2023-05-03T23:27:40.606Z,7.88
2023-05-03T23:30:10.152Z,7.65
2023-05-03T23:32:38.656Z,7.68
2023-05-03T23:35:07.492Z,8.15
2023-05-03T23:37:37.407Z,7.65
2023-05-03T23:40:08.083Z,7.22
2023-05-03T23:42:36.238Z,7.40
2023-05-03T23:45:04.096Z,7.45
2023-05-03T23:47:32.266Z,7.07
2023-05-03T23:50:00.213Z,7.30
2023-05-03T23:52:28.348Z,7.45
2023-05-03T23:54:56.724Z,8.82
2023-05-03T23:57:26.217Z,7.88
2023-05-03T23:59:54.800Z,7.35
